Portada
METAR-TAF:

METAR-TAF

Aeroports :

Sinop, Turquia

latitud: 42-00-57N, longitud: 035-03-59E, altitud: 7 m

Observació

L'informe es va fer fa 14 hores i 38 minuts, a les 09:50 UTC
Vent 11 kt del Nord-Oest
Temperatura 25°C
Humitat 54%
Pressió 1010 hPa
Visibilitat 10 km o més
Escasses núvols a una alçada de 3000 ft

METAR: LTCM 160950Z 31011KT 9999 FEW030 25/15 Q1010

Hora: 03:28 (00:28 UTC)

Pronòstic

L'informe es va fer fa 10 hores i 48 minuts, a les 13:40 UTC
Pronòstic vàlid del 16 a les 15 UTC al 16 a les 24 UTC
Vent 10 kt del Nord
Visibilitat 10 km o més
Escasses núvols a una alçada de 3300 ft
Núvols disperses a una alçada de 10000 ft

TAF: LTCM 161340Z 1615/1624 35010KT 9999 FEW033 SCT100

Observacions i pronòstics meteorològics de més de 4000 aeroports (METAR i TAF).

Les estacions disponibles són els punts grocs i vermells al mapa.

Posi el ratolí al punt desitjat per veure el nom de l'estació.

Feu clic per veure les observacions i els pronòstics meteorològics.

Per canviar el mapa: feu clic els botons verds amb una creu de color negre per apropar; al botó verd amb un guió per allunyar la imatge; o en les fletxes verdes per a mapes adjacents.


METAR-TAF: